Terminal Aerodrome Forecast
Issued by NWS

Home | Current Version | Previous Version | Graphics & Text | Print | Product List | Glossary On
Versions: 1 2 3 4 5 6 7 8 9 10 11 12 13 14 15 16 17 18 19 20 21 22 23 24 25 26
000
FTUS43 KABR 201000 AAA
TAFATY
TAF AMD
KATY 201051Z 2011/2106 16008KT 4SM BR SCT003
      TEMPO 2011/2013 BKN003
     FM201500 20013KT P6SM FEW250
     FM210300 17006KT P6SM SKC=

USA.gov is the U.S. government's official web portal to all federal, state and local government web resources and services.